Decoded Metar for LFOK (CHALONS in FRANCE) (IATA:N/A) | Meteo·Mobile Aviation Weather
aviador You're here:

LFOK Decoded Metar

CHALONS in FRANCE
Report Time2018-12-14 12:30:00
UTC Time2018-12-14 12:46:19
Flight Rules vfr VFR
Wind040° at 08 kt
W.Decomp.*RWY 10: 4.0 kt HW 6.9 kt LCW
W.Rank040° ranks 16
Current wind is above 040° avg. (6.6)
Visibility9999 m
Phenomena:N/A
Clouds:Overcast 032 Hf
Expected CloudBase > 1,200 ft AGL from Temp-Dew spread
Ceiling3,200 ft
Temp00°C (ISA -14)
Dew Point-3°C (80% RH)
AAT-5.3°C
QNH1019 hPa
Density Alt-1,306 ft
Elevation531 ft
Report Wrong Elevation
Raw Report
LFOK 141230Z AUTO 04008KT 9999 OVC032 00/M03 Q1019 NOSIG=

Extra information for LFOK:More info

Metar Taf Metar & Taf Last 4 Metars F.Rules Stats Wind Profile Meteogram Temp Stats Airport Information Weather charts Add Link Nearby VenuesMetar ALERT Operation Metar Decoded Social comments